createdAt,value
2019-03-13T00:00:26.496Z,60.07
2019-03-13T00:02:54.672Z,59.66
2019-03-13T00:05:22.460Z,60.18
2019-03-13T00:07:50.103Z,60.02
2019-03-13T00:10:18.542Z,59.61
2019-03-13T00:12:46.462Z,59.48
2019-03-13T00:17:40.103Z,60.07
2019-03-13T00:20:08.256Z,60.43
2019-03-13T00:22:36.207Z,59.86
2019-03-13T00:25:03.949Z,60.00
2019-03-13T00:27:31.494Z,59.86
2019-03-13T00:29:59.150Z,59.43
2019-03-13T00:32:26.982Z,60.41
2019-03-13T00:34:54.701Z,60.29
2019-03-13T00:37:22.276Z,59.42
2019-03-13T00:39:50.027Z,60.29
2019-03-13T00:42:17.804Z,60.16
2019-03-13T00:44:45.265Z,60.31
2019-03-13T00:47:13.897Z,61.10
2019-03-13T00:49:41.633Z,60.95
2019-03-13T00:52:09.751Z,61.64
2019-03-13T00:54:37.576Z,62.72
2019-03-13T00:57:04.969Z,61.75
2019-03-13T00:59:33.421Z,61.71
2019-03-13T01:02:08.661Z,61.86
2019-03-13T01:04:59.159Z,62.72
2019-03-13T01:07:27.328Z,62.99
2019-03-13T01:09:55.713Z,63.19
2019-03-13T01:12:23.597Z,63.29
2019-03-13T01:14:51.354Z,62.65
2019-03-13T01:17:19.332Z,62.28
2019-03-13T01:19:47.356Z,62.72
2019-03-13T01:22:15.223Z,62.67
2019-03-13T01:24:43.440Z,62.22
2019-03-13T01:27:10.839Z,62.48
2019-03-13T01:29:38.119Z,63.48
2019-03-13T01:32:31.238Z,62.48
2019-03-13T01:35:20.859Z,63.14
2019-03-13T01:37:48.543Z,63.02
2019-03-13T01:40:16.539Z,63.06
2019-03-13T01:42:45.119Z,62.86
2019-03-13T01:45:13.722Z,63.12
2019-03-13T01:47:41.540Z,63.13
2019-03-13T01:50:09.398Z,63.47
2019-03-13T01:52:37.745Z,63.50
2019-03-13T01:55:05.892Z,63.40
2019-03-13T01:57:33.075Z,64.34
2019-03-13T02:00:01.182Z,63.82
2019-03-13T02:02:28.567Z,64.09
2019-03-13T02:04:56.238Z,64.29
2019-03-13T02:07:24.402Z,63.51
2019-03-13T02:09:52.184Z,62.95
2019-03-13T02:12:19.967Z,63.83
2019-03-13T02:14:47.710Z,64.34
2019-03-13T02:17:15.377Z,63.61
2019-03-13T02:19:43.601Z,63.53
2019-03-13T02:22:11.179Z,64.26
2019-03-13T02:24:39.018Z,64.91
2019-03-13T02:27:06.800Z,64.23
2019-03-13T02:29:34.367Z,64.05
2019-03-13T02:32:01.800Z,65.20
2019-03-13T02:34:29.907Z,64.74
2019-03-13T02:36:58.100Z,65.36
2019-03-13T02:39:25.995Z,64.38
2019-03-13T02:41:54.544Z,65.56
2019-03-13T02:44:21.964Z,65.35
2019-03-13T02:46:49.615Z,64.95
2019-03-13T02:49:17.742Z,65.01
2019-03-13T02:51:44.881Z,65.42
2019-03-13T02:54:12.614Z,63.99
2019-03-13T02:56:40.119Z,64.08
2019-03-13T02:59:07.948Z,63.71
2019-03-13T03:01:41.069Z,65.26
2019-03-13T03:04:09.860Z,63.93
2019-03-13T03:06:37.909Z,64.31
2019-03-13T03:09:07.848Z,63.64
2019-03-13T03:11:35.907Z,63.16
2019-03-13T03:14:03.698Z,64.22
2019-03-13T03:16:31.919Z,62.33
2019-03-13T03:19:00.018Z,62.78
2019-03-13T03:21:27.429Z,63.49
2019-03-13T03:23:55.297Z,63.36
2019-03-13T03:26:23.319Z,62.90
2019-03-13T03:28:51.046Z,63.60
2019-03-13T03:31:19.068Z,64.00
2019-03-13T03:34:01.139Z,63.39
2019-03-13T03:36:29.288Z,64.00
2019-03-13T03:38:56.976Z,63.58
2019-03-13T03:41:24.641Z,63.74
2019-03-13T03:43:52.521Z,63.61
2019-03-13T03:46:20.163Z,63.44
2019-03-13T03:48:47.814Z,63.10
2019-03-13T03:51:15.524Z,63.07
2019-03-13T03:53:42.809Z,63.03
2019-03-13T03:56:10.554Z,63.01
2019-03-13T03:58:38.028Z,63.94
2019-03-13T04:01:06.048Z,62.64
2019-03-13T04:03:34.128Z,62.94
2019-03-13T04:06:01.544Z,62.86
2019-03-13T04:08:29.143Z,63.17
2019-03-13T04:10:56.312Z,62.99
2019-03-13T04:13:24.487Z,63.02
2019-03-13T04:15:51.889Z,63.15
2019-03-13T04:18:19.489Z,63.39
2019-03-13T04:20:47.362Z,63.68
2019-03-13T04:23:14.666Z,63.68
2019-03-13T04:25:42.338Z,63.76
2019-03-13T04:28:09.860Z,64.71
2019-03-13T04:30:37.719Z,64.60
2019-03-13T04:33:05.887Z,64.64
2019-03-13T04:35:34.009Z,64.83
2019-03-13T04:38:01.742Z,65.00
2019-03-13T04:40:29.479Z,65.06
2019-03-13T04:42:56.882Z,64.97
2019-03-13T04:45:25.293Z,65.43
2019-03-13T04:47:52.988Z,65.34
2019-03-13T04:50:21.041Z,65.47
2019-03-13T04:52:49.424Z,65.87
2019-03-13T04:55:17.352Z,65.84
2019-03-13T04:57:44.775Z,65.78
2019-03-13T05:00:13.375Z,66.17
2019-03-13T05:02:41.129Z,66.19
2019-03-13T05:05:46.404Z,66.30
2019-03-13T05:08:45.216Z,66.00
2019-03-13T05:11:08.575Z,65.96
2019-03-13T05:13:36.031Z,65.87
2019-03-13T05:16:03.641Z,65.82
2019-03-13T05:18:31.592Z,66.31
2019-03-13T05:20:59.512Z,66.17
2019-03-13T05:23:27.853Z,66.02
2019-03-13T05:25:55.310Z,66.39
2019-03-13T05:28:23.091Z,66.43
2019-03-13T05:30:53.129Z,66.79
2019-03-13T05:33:20.224Z,66.73
2019-03-13T05:35:47.632Z,66.88
2019-03-13T05:38:15.532Z,66.97
2019-03-13T05:40:43.120Z,68.55
2019-03-13T05:43:11.136Z,67.25
2019-03-13T05:45:39.256Z,67.49
2019-03-13T05:48:06.934Z,66.87
2019-03-13T05:50:34.835Z,66.94
2019-03-13T05:53:02.731Z,66.65
2019-03-13T05:55:29.906Z,66.67
2019-03-13T05:57:57.823Z,66.46
2019-03-13T06:00:27.672Z,66.26
2019-03-13T06:02:55.776Z,66.70
2019-03-13T06:05:23.150Z,66.14
2019-03-13T06:07:51.351Z,66.28
2019-03-13T06:10:18.849Z,66.27
2019-03-13T06:12:46.707Z,65.86
2019-03-13T06:15:14.919Z,65.87
2019-03-13T06:17:43.261Z,66.06
2019-03-13T06:20:11.882Z,66.08
2019-03-13T06:22:39.649Z,65.92
2019-03-13T06:25:08.505Z,65.93
2019-03-13T06:27:36.444Z,65.82
2019-03-13T06:30:06.525Z,65.68
2019-03-13T06:32:34.120Z,65.91
2019-03-13T06:35:01.711Z,66.06
2019-03-13T06:37:30.969Z,64.91
2019-03-13T06:39:58.687Z,65.68
2019-03-13T06:42:26.115Z,64.31
2019-03-13T06:44:53.633Z,65.39
2019-03-13T06:47:21.420Z,63.95
2019-03-13T06:49:49.943Z,63.73
2019-03-13T06:52:17.396Z,63.97
2019-03-13T06:54:45.616Z,64.00
2019-03-13T06:57:12.904Z,64.01
2019-03-13T06:59:58.875Z,63.68
2019-03-13T07:02:58.178Z,63.75
2019-03-13T07:06:00.445Z,62.80
2019-03-13T07:09:02.826Z,63.08
2019-03-13T07:11:53.930Z,61.58
2019-03-13T07:14:47.203Z,59.61
2019-03-13T07:17:37.461Z,58.54
2019-03-13T07:20:32.085Z,58.06
2019-03-13T07:23:07.836Z,59.80
2019-03-13T07:25:45.391Z,58.36
2019-03-13T07:28:34.767Z,59.42
2019-03-13T07:31:20.410Z,56.65
2019-03-13T07:34:26.273Z,56.93
2019-03-13T07:37:21.911Z,56.45
2019-03-13T07:40:07.786Z,55.22
2019-03-13T07:43:00.481Z,56.13
2019-03-13T07:45:35.124Z,55.93
2019-03-13T07:48:22.976Z,56.25
2019-03-13T07:50:59.766Z,55.90
2019-03-13T07:53:45.605Z,56.02
2019-03-13T07:56:33.053Z,56.30
2019-03-13T07:59:11.158Z,56.74
2019-03-13T08:02:10.686Z,55.72
2019-03-13T08:04:51.521Z,53.26
2019-03-13T08:07:28.910Z,53.22
2019-03-13T08:10:34.386Z,55.38
2019-03-13T08:13:08.450Z,53.48
2019-03-13T08:16:05.375Z,53.28
2019-03-13T08:18:58.720Z,51.10
2019-03-13T08:22:00.654Z,52.39
2019-03-13T08:24:46.963Z,50.13
2019-03-13T08:27:37.532Z,50.19
2019-03-13T08:30:34.315Z,48.92
2019-03-13T08:33:09.415Z,49.69
2019-03-13T08:35:45.642Z,49.80
2019-03-13T08:38:18.611Z,51.35
2019-03-13T08:41:04.668Z,49.73
2019-03-13T08:43:51.895Z,51.13
2019-03-13T08:46:30.114Z,51.37
2019-03-13T08:49:20.840Z,51.52
2019-03-13T08:51:55.154Z,51.48
2019-03-13T08:54:32.112Z,50.77
2019-03-13T08:57:18.839Z,51.75
2019-03-13T08:59:58.251Z,51.35
2019-03-13T09:02:43.696Z,51.88
2019-03-13T09:05:23.611Z,53.08
2019-03-13T09:08:01.403Z,51.96
2019-03-13T09:10:38.854Z,51.08
2019-03-13T09:13:16.056Z,51.62
2019-03-13T09:15:54.063Z,49.98
2019-03-13T09:18:30.178Z,50.37
2019-03-13T09:21:09.975Z,51.04
2019-03-13T09:23:57.027Z,52.37
2019-03-13T09:26:41.672Z,52.44
2019-03-13T09:29:32.373Z,53.10
2019-03-13T09:32:12.065Z,51.75
2019-03-13T09:34:53.163Z,51.04
2019-03-13T09:37:39.315Z,50.56
2019-03-13T09:40:30.147Z,52.48
2019-03-13T09:43:14.223Z,52.37
2019-03-13T09:46:00.099Z,49.99
2019-03-13T09:48:47.386Z,50.68
2019-03-13T09:51:27.679Z,51.09
2019-03-13T09:54:13.350Z,49.81
2019-03-13T09:57:09.571Z,49.08
2019-03-13T09:59:50.059Z,50.45
2019-03-13T10:02:35.675Z,49.29
2019-03-13T10:05:16.584Z,48.78
2019-03-13T10:07:49.388Z,49.95
2019-03-13T10:10:36.404Z,52.32
2019-03-13T10:13:35.726Z,51.31
2019-03-13T10:16:21.960Z,50.47
2019-03-13T10:19:04.145Z,49.50
2019-03-13T10:21:57.196Z,50.15
2019-03-13T10:24:44.153Z,53.38
2019-03-13T10:27:49.355Z,50.68
2019-03-13T10:30:21.702Z,49.74
2019-03-13T10:33:09.126Z,50.43
2019-03-13T10:35:44.627Z,50.26
2019-03-13T10:38:50.375Z,51.76
2019-03-13T10:41:37.909Z,53.75
2019-03-13T10:44:23.918Z,49.72
2019-03-13T10:47:20.539Z,49.55
2019-03-13T10:49:58.916Z,49.56
2019-03-13T10:52:35.479Z,49.55
2019-03-13T10:55:14.101Z,47.59
2019-03-13T10:58:14.719Z,46.43
2019-03-13T11:01:02.320Z,49.50
2019-03-13T11:03:42.543Z,47.33
2019-03-13T11:06:20.984Z,49.25
2019-03-13T11:08:56.323Z,46.36
2019-03-13T11:11:52.781Z,46.09
2019-03-13T11:14:31.041Z,45.40
2019-03-13T11:17:17.087Z,44.76
2019-03-13T11:19:51.884Z,45.23
2019-03-13T11:22:44.994Z,47.16
2019-03-13T11:25:28.372Z,45.25
2019-03-13T11:28:15.173Z,44.73
2019-03-13T11:31:02.307Z,45.66
2019-03-13T11:33:55.275Z,45.70
2019-03-13T11:36:55.040Z,45.57
2019-03-13T11:39:32.472Z,45.25
2019-03-13T11:42:25.513Z,46.15
2019-03-13T11:45:13.755Z,47.08
2019-03-13T11:48:05.503Z,43.49
2019-03-13T11:50:59.168Z,46.11
2019-03-13T11:53:54.159Z,46.01
2019-03-13T11:56:57.347Z,43.74
2019-03-13T11:59:47.381Z,44.46
2019-03-13T12:02:33.338Z,43.43
2019-03-13T12:05:19.449Z,44.18
2019-03-13T12:08:03.185Z,45.10
2019-03-13T12:10:43.048Z,43.57
2019-03-13T12:13:39.238Z,43.46
2019-03-13T12:16:39.149Z,43.38
2019-03-13T12:19:18.995Z,44.15
2019-03-13T12:21:58.352Z,43.22
2019-03-13T12:24:43.848Z,42.85
2019-03-13T12:27:20.226Z,43.13
2019-03-13T12:30:06.222Z,43.62
2019-03-13T12:33:08.611Z,45.48
2019-03-13T12:35:54.125Z,43.91
2019-03-13T12:38:56.787Z,43.62
2019-03-13T12:41:56.203Z,43.85
2019-03-13T12:45:01.697Z,44.12
2019-03-13T12:47:49.130Z,44.70
2019-03-13T12:50:27.636Z,44.17
2019-03-13T12:53:19.374Z,43.49
2019-03-13T12:56:15.398Z,46.31
2019-03-13T12:59:14.473Z,45.10
2019-03-13T13:02:16.847Z,45.65
2019-03-13T13:05:07.474Z,45.97
2019-03-13T13:07:49.676Z,45.25
2019-03-13T13:10:49.065Z,45.30
2019-03-13T13:13:35.417Z,46.22
2019-03-13T13:16:22.820Z,46.13
2019-03-13T13:18:54.764Z,46.14
2019-03-13T13:21:22.759Z,46.92
2019-03-13T13:23:50.361Z,46.86
2019-03-13T13:26:18.563Z,46.73
2019-03-13T13:28:46.796Z,47.16
2019-03-13T13:31:14.308Z,47.30
2019-03-13T13:33:41.667Z,46.74
2019-03-13T13:36:09.572Z,46.68
2019-03-13T13:38:38.132Z,46.31
2019-03-13T13:41:06.318Z,46.39
2019-03-13T13:43:33.847Z,47.90
2019-03-13T13:46:27.024Z,45.97
2019-03-13T13:48:55.258Z,46.15
2019-03-13T13:51:23.487Z,46.78
2019-03-13T13:53:55.465Z,48.71
2019-03-13T13:56:22.138Z,46.70
2019-03-13T13:58:50.285Z,46.35
2019-03-13T14:01:18.353Z,47.57
2019-03-13T14:03:46.430Z,48.01
2019-03-13T14:06:13.937Z,47.98
2019-03-13T14:08:41.557Z,49.29
2019-03-13T14:11:09.599Z,49.43
2019-03-13T14:13:37.012Z,50.66
2019-03-13T14:16:05.125Z,51.99
2019-03-13T14:18:32.663Z,50.52
2019-03-13T14:21:00.813Z,50.73
2019-03-13T14:23:28.678Z,52.66
2019-03-13T14:25:56.541Z,53.76
2019-03-13T14:28:24.296Z,53.05
2019-03-13T14:30:51.970Z,54.60
2019-03-13T14:33:19.391Z,55.44
2019-03-13T14:35:46.972Z,56.41
2019-03-13T14:38:14.762Z,57.34
2019-03-13T14:40:42.162Z,57.01
2019-03-13T14:43:09.842Z,58.28
2019-03-13T14:45:37.772Z,58.48
2019-03-13T14:48:05.663Z,57.86
2019-03-13T14:50:36.250Z,58.08
2019-03-13T14:53:03.284Z,58.35
2019-03-13T14:55:30.754Z,57.23
2019-03-13T14:57:58.702Z,57.37
2019-03-13T15:00:26.472Z,56.93
2019-03-13T15:02:53.835Z,56.89
2019-03-13T15:05:21.677Z,55.98
2019-03-13T15:07:49.361Z,57.55
2019-03-13T15:10:17.148Z,57.14
2019-03-13T15:12:45.708Z,56.38
2019-03-13T15:15:15.474Z,55.58
2019-03-13T15:17:43.317Z,55.75
2019-03-13T15:20:13.682Z,55.80
2019-03-13T15:22:46.756Z,55.61
2019-03-13T15:25:14.704Z,55.52
2019-03-13T15:27:42.204Z,55.99
2019-03-13T15:30:17.399Z,55.96
2019-03-13T15:32:44.936Z,57.39
2019-03-13T15:35:12.593Z,56.98
2019-03-13T15:37:40.840Z,55.52
2019-03-13T15:40:11.691Z,56.05
2019-03-13T15:42:39.083Z,58.58
2019-03-13T15:45:09.177Z,59.35
2019-03-13T15:47:37.253Z,60.30
2019-03-13T15:50:05.716Z,61.24
2019-03-13T15:52:37.128Z,61.32
2019-03-13T15:55:05.580Z,61.63
2019-03-13T15:57:33.553Z,60.71
2019-03-13T16:00:01.433Z,60.22
2019-03-13T16:02:28.815Z,60.96
2019-03-13T16:04:57.257Z,61.02
2019-03-13T16:07:26.020Z,61.32
2019-03-13T16:09:54.791Z,61.61
2019-03-13T16:12:22.151Z,61.67
2019-03-13T16:14:50.143Z,61.83
2019-03-13T16:17:18.194Z,62.69
2019-03-13T16:19:45.590Z,62.61
2019-03-13T16:22:14.318Z,62.93
2019-03-13T16:24:42.361Z,63.72
2019-03-13T16:27:10.250Z,63.99
2019-03-13T16:29:38.082Z,62.90
2019-03-13T16:32:06.611Z,63.28
2019-03-13T16:34:35.424Z,63.51
2019-03-13T16:37:05.627Z,63.18
2019-03-13T16:39:33.590Z,62.81
2019-03-13T16:42:01.314Z,63.15
2019-03-13T16:44:28.974Z,63.89
2019-03-13T16:46:56.378Z,63.72
2019-03-13T16:49:24.438Z,63.61
2019-03-13T16:51:52.460Z,64.55
2019-03-13T16:54:20.940Z,67.30
2019-03-13T16:56:48.302Z,66.96
2019-03-13T16:59:16.314Z,66.43
2019-03-13T17:01:43.907Z,66.39
2019-03-13T17:04:12.123Z,68.01
2019-03-13T17:06:39.902Z,67.11
2019-03-13T17:09:08.580Z,66.95
2019-03-13T17:11:35.963Z,67.30
2019-03-13T17:14:03.795Z,69.17
2019-03-13T17:16:31.871Z,69.54
2019-03-13T17:19:00.592Z,70.83
2019-03-13T17:21:28.034Z,70.13
2019-03-13T17:23:55.892Z,68.77
2019-03-13T17:26:23.040Z,69.65
2019-03-13T17:28:50.542Z,69.53
2019-03-13T17:31:22.386Z,68.87
2019-03-13T17:33:50.025Z,71.09
2019-03-13T17:36:17.997Z,69.11
2019-03-13T17:38:45.454Z,68.77
2019-03-13T17:41:13.686Z,68.97
2019-03-13T17:43:41.562Z,69.71
2019-03-13T17:46:09.329Z,70.82
2019-03-13T17:48:36.776Z,71.65
2019-03-13T17:51:04.581Z,71.89
2019-03-13T17:53:36.926Z,70.62
2019-03-13T17:56:08.340Z,72.43
2019-03-13T17:58:37.159Z,73.03
2019-03-13T18:01:04.700Z,72.20
2019-03-13T18:03:33.031Z,73.28
2019-03-13T18:06:00.584Z,72.19
2019-03-13T18:08:28.068Z,73.08
2019-03-13T18:10:55.997Z,72.45
2019-03-13T18:13:24.239Z,72.35
2019-03-13T18:15:52.621Z,72.76
2019-03-13T18:18:20.474Z,73.57
2019-03-13T18:20:48.055Z,74.56
2019-03-13T18:23:15.895Z,74.33
2019-03-13T18:25:43.243Z,73.10
2019-03-13T18:28:11.079Z,72.41
2019-03-13T18:30:39.020Z,72.69
2019-03-13T18:33:07.501Z,72.57
2019-03-13T18:35:35.675Z,72.54
2019-03-13T18:38:03.187Z,73.62
2019-03-13T18:40:31.016Z,73.33
2019-03-13T18:42:58.813Z,74.56
2019-03-13T18:45:26.455Z,73.98
2019-03-13T18:47:54.033Z,73.09
2019-03-13T18:50:22.248Z,73.61
2019-03-13T18:52:49.802Z,74.23
2019-03-13T18:55:18.893Z,73.97
2019-03-13T18:57:46.319Z,74.42
2019-03-13T19:00:25.769Z,73.82
2019-03-13T19:02:53.682Z,75.89
2019-03-13T19:05:21.923Z,74.92
2019-03-13T19:07:50.097Z,74.02
2019-03-13T19:10:18.101Z,74.66
2019-03-13T19:12:46.152Z,74.01
2019-03-13T19:15:19.318Z,75.06
2019-03-13T19:17:46.282Z,75.01
2019-03-13T19:20:16.090Z,75.00
2019-03-13T19:22:43.964Z,75.68
2019-03-13T19:25:12.241Z,76.01
2019-03-13T19:27:39.831Z,76.47
2019-03-13T19:30:17.353Z,75.30
2019-03-13T19:32:44.619Z,74.69
2019-03-13T19:35:12.111Z,76.78
2019-03-13T19:37:39.536Z,75.86
2019-03-13T19:40:09.001Z,74.99
2019-03-13T19:42:37.069Z,76.25
2019-03-13T19:45:05.888Z,75.62
2019-03-13T19:47:34.411Z,75.16
2019-03-13T19:50:01.842Z,75.25
2019-03-13T19:52:30.482Z,75.58
2019-03-13T19:54:58.284Z,75.46
2019-03-13T19:57:25.591Z,75.54
2019-03-13T19:59:53.134Z,75.79
2019-03-13T20:02:20.892Z,75.84
2019-03-13T20:04:48.630Z,75.18
2019-03-13T20:07:16.468Z,76.46
2019-03-13T20:09:44.315Z,75.37
2019-03-13T20:12:14.131Z,76.70
2019-03-13T20:14:41.357Z,75.96
2019-03-13T20:17:08.981Z,75.95
2019-03-13T20:19:36.426Z,77.35
2019-03-13T20:22:04.190Z,77.40
2019-03-13T20:24:31.730Z,78.63
2019-03-13T20:26:59.159Z,78.69
2019-03-13T20:29:26.861Z,77.76
2019-03-13T20:31:54.777Z,79.13
2019-03-13T20:34:22.909Z,78.45
2019-03-13T20:36:50.720Z,77.80
2019-03-13T20:39:18.951Z,77.37
2019-03-13T20:41:46.900Z,77.17
2019-03-13T20:44:14.890Z,77.14
2019-03-13T20:46:42.833Z,78.41
2019-03-13T20:49:10.953Z,77.25
2019-03-13T20:51:38.580Z,77.25
2019-03-13T20:54:06.838Z,76.67
2019-03-13T20:56:34.668Z,78.52
2019-03-13T20:59:02.606Z,77.85
2019-03-13T21:01:30.828Z,77.15
2019-03-13T21:03:58.761Z,76.87
2019-03-13T21:06:27.086Z,77.26
2019-03-13T21:08:55.201Z,77.16
2019-03-13T21:11:23.028Z,77.37
2019-03-13T21:13:51.429Z,76.51
2019-03-13T21:16:18.877Z,76.14
2019-03-13T21:18:46.314Z,77.45
2019-03-13T21:21:14.464Z,76.26
2019-03-13T21:23:41.986Z,77.08
2019-03-13T21:26:09.729Z,78.10
2019-03-13T21:28:37.973Z,77.14
2019-03-13T21:31:07.324Z,76.86
2019-03-13T21:33:34.816Z,76.86
2019-03-13T21:36:02.502Z,77.19
2019-03-13T21:38:30.486Z,77.01
2019-03-13T21:40:58.208Z,76.74
2019-03-13T21:43:25.794Z,76.72
2019-03-13T21:45:53.211Z,76.92
2019-03-13T21:48:20.365Z,77.89
2019-03-13T21:50:50.427Z,78.37
2019-03-13T21:53:18.076Z,79.13
2019-03-13T21:55:45.638Z,79.74
2019-03-13T21:58:13.607Z,79.04
2019-03-13T22:00:42.045Z,79.58
2019-03-13T22:03:10.088Z,79.17
2019-03-13T22:05:37.797Z,78.54
2019-03-13T22:08:05.564Z,78.39
2019-03-13T22:10:32.954Z,77.21
2019-03-13T22:13:00.850Z,77.89
2019-03-13T22:15:28.980Z,77.61
2019-03-13T22:17:56.524Z,78.07
2019-03-13T22:20:24.933Z,78.20
2019-03-13T22:22:52.457Z,77.87
2019-03-13T22:25:20.971Z,77.72
2019-03-13T22:27:48.616Z,79.23
2019-03-13T22:30:18.239Z,80.41
2019-03-13T22:32:45.784Z,78.96
2019-03-13T22:35:13.492Z,80.56
2019-03-13T22:37:41.180Z,80.71
2019-03-13T22:40:09.872Z,79.64
2019-03-13T22:42:37.515Z,79.98
2019-03-13T22:45:07.492Z,80.85
2019-03-13T22:47:42.645Z,80.97
2019-03-13T22:50:05.331Z,81.74
2019-03-13T22:52:33.096Z,79.44
2019-03-13T22:55:00.634Z,80.92
2019-03-13T22:57:28.106Z,79.73
2019-03-13T22:59:56.537Z,79.26
2019-03-13T23:02:23.912Z,79.77
2019-03-13T23:04:51.294Z,79.34
2019-03-13T23:07:19.130Z,79.48
2019-03-13T23:09:46.549Z,78.80
2019-03-13T23:12:14.022Z,79.38
2019-03-13T23:14:41.898Z,79.10
2019-03-13T23:17:10.134Z,78.82
2019-03-13T23:19:38.771Z,79.59
2019-03-13T23:22:06.399Z,79.79
2019-03-13T23:24:33.929Z,78.75
2019-03-13T23:27:01.813Z,78.96
2019-03-13T23:29:29.964Z,80.54
2019-03-13T23:31:57.826Z,80.96
2019-03-13T23:34:25.251Z,80.34
2019-03-13T23:36:52.888Z,80.36
2019-03-13T23:39:20.765Z,81.24
2019-03-13T23:41:48.866Z,81.58
2019-03-13T23:44:16.903Z,80.36
2019-03-13T23:46:44.652Z,80.15
2019-03-13T23:49:12.344Z,80.80
2019-03-13T23:51:39.621Z,80.72
2019-03-13T23:54:07.051Z,81.17
2019-03-13T23:56:35.026Z,80.85
2019-03-13T23:59:02.872Z,82.06
